Time;durP1;ratioP1;P1;durP2;ratioP2;P2;SDS_P1;SDS_P2;PMS_P1;PMS_P2;Temp;Humidity;BMP_temperature;BMP_pressure;BME280_temperature;BME280_humidity;BME280_pressure;Samples;Min_cycle;Max_cycle;Signal;HPM_P1;HPM_P2
2022/08/11 00:00:34;;;;;;;8.07;4.72;;;;;;;;;;5110049;28;20051;-74
2022/08/11 00:03:04;;;;;;;7.90;4.50;;;;;;;;;;5110920;28;20020;-75
2022/08/11 00:07:06;;;;;;;7.53;4.43;;;;;;;;;;5111450;27;20117;-75
2022/08/11 00:09:34;;;;;;;7.55;4.75;;;;;;;;;;5111093;28;20448;-75
2022/08/11 00:16:00;;;;;;;7.22;4.72;;;;;;;;;;5111108;27;20408;-75
2022/08/11 00:18:26;;;;;;;7.55;4.72;;;;;;;;;;5127209;28;20032;-75
2022/08/11 00:22:39;;;;;;;7.75;4.53;;;;;;;;;;5111126;27;20389;-75
2022/08/11 00:26:38;;;;;;;7.90;4.97;;;;;;;;;;5111723;27;20396;-76
2022/08/11 00:29:08;;;;;;;9.63;5.20;;;;;;;;;;5109703;28;20115;-76
2022/08/11 00:32:23;;;;;;;9.23;5.28;;;;;;;;;;5091686;27;20394;-75
2022/08/11 00:34:49;;;;;;;9.45;5.18;;;;;;;;;;5089766;28;20027;-76
2022/08/11 00:37:20;;;;;;;7.72;4.70;;;;;;;;;;5090562;28;20025;-76
2022/08/11 00:39:48;;;;;;;8.30;4.75;;;;;;;;;;5091181;28;20528;-76
2022/08/11 00:42:43;;;;;;;9.38;4.82;;;;;;;;;;5111851;27;20776;-75
2022/08/11 00:45:12;;;;;;;8.07;4.85;;;;;;;;;;5111030;28;20024;-75
2022/08/11 00:48:32;;;;;;;6.72;4.03;;;;;;;;;;5111826;27;20401;-75
2022/08/11 00:52:29;;;;;;;8.20;4.95;;;;;;;;;;5070471;27;20957;-75
2022/08/11 00:55:14;;;;;;;7.15;4.13;;;;;;;;;;5070951;28;20029;-75
2022/08/11 00:57:58;;;;;;;7.97;4.78;;;;;;;;;;5070385;28;20025;-75
2022/08/11 01:00:26;;;;;;;8.40;3.95;;;;;;;;;;5070722;28;20434;-75
2022/08/11 01:02:58;;;;;;;7.88;4.70;;;;;;;;;;5070701;28;20032;-75
2022/08/11 01:06:26;;;;;;;7.60;4.68;;;;;;;;;;5110998;27;20392;-75
2022/08/11 01:09:04;;;;;;;8.07;4.65;;;;;;;;;;5111562;28;20024;-75
2022/08/11 01:11:33;;;;;;;8.18;5.03;;;;;;;;;;5110947;28;20028;-75
2022/08/11 01:14:40;;;;;;;8.38;5.18;;;;;;;;;;5071240;28;20384;-75
2022/08/11 01:17:29;;;;;;;6.45;4.55;;;;;;;;;;5071127;28;20033;-74
2022/08/11 01:20:03;;;;;;;10.13;5.55;;;;;;;;;;5070521;28;20021;-74
2022/08/11 01:22:29;;;;;;;9.82;5.72;;;;;;;;;;5070822;28;20095;-74
2022/08/11 01:25:26;;;;;;;8.65;5.13;;;;;;;;;;5052716;28;20602;-74
2022/08/11 01:27:55;;;;;;;9.18;5.07;;;;;;;;;;5070777;28;20492;-74
2022/08/11 01:30:21;;;;;;;10.13;4.97;;;;;;;;;;5070465;28;20032;-75
2022/08/11 01:33:44;;;;;;;8.80;5.32;;;;;;;;;;5111365;27;20814;-75
2022/08/11 01:36:28;;;;;;;9.13;5.57;;;;;;;;;;5111590;28;20028;-76
2022/08/11 01:39:13;;;;;;;9.50;5.70;;;;;;;;;;5127176;28;20020;-75
2022/08/11 01:44:38;;;;;;;8.30;5.18;;;;;;;;;;5112158;27;20430;-75
2022/08/11 01:49:12;;;;;;;8.20;5.22;;;;;;;;;;5111499;27;20385;-75
2022/08/11 01:52:03;;;;;;;9.35;5.50;;;;;;;;;;5111474;28;20115;-76
2022/08/11 01:56:22;;;;;;;8.50;5.30;;;;;;;;;;5111494;27;20474;-74
2022/08/11 01:59:00;;;;;;;8.63;5.35;;;;;;;;;;5111390;28;20024;-75
2022/08/11 02:09:49;;;;;;;8.13;5.10;;;;;;;;;;5111257;27;20491;-75
2022/08/11 02:13:42;;;;;;;7.28;4.55;;;;;;;;;;5111367;27;20480;-75
2022/08/11 02:17:36;;;;;;;7.68;5.15;;;;;;;;;;5112045;27;20473;-74
2022/08/11 02:23:47;;;;;;;9.43;5.10;;;;;;;;;;5111719;28;20497;-74
2022/08/11 02:26:30;;;;;;;8.32;5.20;;;;;;;;;;5110025;28;20020;-75
2022/08/11 02:29:18;;;;;;;7.15;4.55;;;;;;;;;;5109677;28;20062;-75
2022/08/11 02:35:12;;;;;;;6.70;4.53;;;;;;;;;;5111643;27;20392;-75
2022/08/11 02:37:45;;;;;;;8.75;4.97;;;;;;;;;;5109737;28;20028;-75
2022/08/11 02:40:22;;;;;;;7.28;4.70;;;;;;;;;;5110366;28;20077;-75
2022/08/11 02:42:48;;;;;;;7.70;4.15;;;;;;;;;;5111050;28;20099;-75
2022/08/11 02:45:31;;;;;;;8.05;4.82;;;;;;;;;;5109935;28;20501;-74
2022/08/11 02:51:39;;;;;;;8.35;4.50;;;;;;;;;;5111080;28;20063;-74
2022/08/11 02:54:08;;;;;;;7.53;4.68;;;;;;;;;;5111644;28;20020;-74
2022/08/11 02:57:40;;;;;;;6.30;3.97;;;;;;;;;;5111524;27;20400;-75
2022/08/11 03:00:09;;;;;;;9.63;5.05;;;;;;;;;;5110183;28;20093;-74
2022/08/11 03:06:10;;;;;;;6.88;4.13;;;;;;;;;;5110965;27;20449;-75
2022/08/11 03:18:00;;;;;;;8.95;4.70;;;;;;;;;;5173469;27;20118;-75
2022/08/11 03:22:26;;;;;;;6.20;4.15;;;;;;;;;;5111455;27;20420;-75
2022/08/11 03:24:58;;;;;;;7.68;4.47;;;;;;;;;;5126905;28;20030;-75
2022/08/11 03:28:03;;;;;;;7.65;4.95;;;;;;;;;;5111799;27;20978;-76
2022/08/11 03:31:23;;;;;;;6.30;4.00;;;;;;;;;;5112180;27;20818;-75
2022/08/11 03:34:04;;;;;;;9.75;4.25;;;;;;;;;;5109770;28;20061;-75
2022/08/11 03:36:49;;;;;;;11.00;5.47;;;;;;;;;;5110374;28;20361;-76
2022/08/11 03:39:22;;;;;;;8.45;4.32;;;;;;;;;;5109601;28;20394;-76
2022/08/11 03:42:07;;;;;;;8.02;4.60;;;;;;;;;;5111280;28;20020;-77
2022/08/11 03:46:34;;;;;;;11.20;4.68;;;;;;;;;;5070560;27;20430;-76
2022/08/11 03:49:12;;;;;;;9.25;3.80;;;;;;;;;;5070885;28;20087;-76
2022/08/11 03:51:53;;;;;;;9.07;5.25;;;;;;;;;;5071008;28;20381;-75
2022/08/11 03:54:42;;;;;;;7.18;4.32;;;;;;;;;;5070464;28;20051;-76
2022/08/11 03:57:29;;;;;;;7.45;4.18;;;;;;;;;;5066507;28;20452;-75
2022/08/11 04:00:20;;;;;;;6.93;3.90;;;;;;;;;;5111550;27;20521;-76
2022/08/11 04:06:48;;;;;;;7.22;4.50;;;;;;;;;;5111881;27;20939;-75
2022/08/11 04:10:26;;;;;;;8.40;4.00;;;;;;;;;;5111746;27;20769;-75
2022/08/11 04:12:54;;;;;;;8.88;4.60;;;;;;;;;;5111404;28;20052;-77
2022/08/11 04:18:20;;;;;;;7.70;4.35;;;;;;;;;;5111382;28;20132;-76
2022/08/11 04:22:20;;;;;;;6.53;3.75;;;;;;;;;;5111425;27;20908;-76
2022/08/11 04:25:09;;;;;;;6.75;3.97;;;;;;;;;;5111584;28;20059;-75
2022/08/11 04:27:47;;;;;;;7.82;4.28;;;;;;;;;;5110090;28;20111;-75
2022/08/11 04:30:41;;;;;;;6.32;3.70;;;;;;;;;;5111295;27;20396;-75
2022/08/11 04:33:41;;;;;;;6.90;3.60;;;;;;;;;;5112070;27;20408;-77
2022/08/11 04:36:10;;;;;;;6.55;3.85;;;;;;;;;;5110974;28;20103;-77
2022/08/11 05:02:58;;;;;;;11.60;3.97;;;;;;;;;;5111598;28;20043;-76
2022/08/11 05:05:34;;;;;;;6.50;3.75;;;;;;;;;;5126588;28;20027;-76
2022/08/11 05:08:58;;;;;;;5.60;3.33;;;;;;;;;;5112182;27;20424;-75
2022/08/11 05:12:02;;;;;;;5.53;3.38;;;;;;;;;;5111216;27;20389;-76
2022/08/11 05:35:48;;;;;;;6.72;3.38;;;;;;;;;;5111352;28;20031;-76
2022/08/11 05:57:20;;;;;;;7.00;3.72;;;;;;;;;;5111518;27;20765;-76
2022/08/11 05:59:47;;;;;;;6.20;3.28;;;;;;;;;;5109697;28;20032;-76
2022/08/11 06:02:46;;;;;;;8.27;3.40;;;;;;;;;;5111800;27;20385;-76
2022/08/11 06:05:13;;;;;;;5.88;3.17;;;;;;;;;;5110094;28;20384;-74
2022/08/11 06:10:36;;;;;;;6.07;3.25;;;;;;;;;;5131844;27;20356;-77
2022/08/11 06:13:03;;;;;;;4.28;2.67;;;;;;;;;;5092135;28;20111;-77
2022/08/11 06:15:31;;;;;;;9.30;4.10;;;;;;;;;;5072272;28;20028;-77
2022/08/11 06:18:00;;;;;;;5.75;3.00;;;;;;;;;;5090797;28;20031;-80
2022/08/11 06:20:48;;;;;;;6.53;3.55;;;;;;;;;;5109419;27;20318;-82
2022/08/11 06:23:16;;;;;;;5.38;3.08;;;;;;;;;;5109363;28;20114;-76
2022/08/11 06:28:43;;;;;;;6.07;3.05;;;;;;;;;;5110628;27;20472;-79
2022/08/11 06:35:42;;;;;;;6.30;2.90;;;;;;;;;;5110817;27;20417;-82
2022/08/11 06:40:01;;;;;;;6.40;3.03;;;;;;;;;;5070280;28;20419;-80
2022/08/11 06:42:45;;;;;;;6.07;3.03;;;;;;;;;;5052450;28;20392;-81
2022/08/11 06:47:05;;;;;;;7.13;4.13;;;;;;;;;;5111665;27;20420;-82
2022/08/11 06:52:29;;;;;;;6.28;3.10;;;;;;;;;;5111878;28;20031;-82
2022/08/11 06:55:04;;;;;;;5.38;3.08;;;;;;;;;;5127556;28;20479;-82
2022/08/11 07:00:29;;;;;;;7.28;3.25;;;;;;;;;;5115614;28;20054;-81
2022/08/11 07:03:09;;;;;;;5.47;2.95;;;;;;;;;;5110889;28;20020;-82
2022/08/11 07:31:40;;;;;;;6.40;2.85;;;;;;;;;;5111565;27;20426;-79
2022/08/11 07:34:31;;;;;;;4.53;2.70;;;;;;;;;;5101811;28;20042;-85
2022/08/11 07:36:58;;;;;;;13.73;3.53;;;;;;;;;;5109927;28;20031;-81
2022/08/11 07:41:15;;;;;;;5.65;3.20;;;;;;;;;;5109642;27;20464;-74
2022/08/11 07:43:42;;;;;;;6.45;2.30;;;;;;;;;;5108841;28;20415;-75
2022/08/11 07:54:51;;;;;;;4.82;2.40;;;;;;;;;;5109004;28;20047;-78
2022/08/11 08:18:00;;;;;;;4.97;2.78;;;;;;;;;;5109202;28;20506;-82
2022/08/11 08:20:34;;;;;;;5.68;2.90;;;;;;;;;;5108164;28;20028;-83
2022/08/11 08:23:02;;;;;;;3.63;2.20;;;;;;;;;;5109762;28;20413;-82
2022/08/11 08:30:46;;;;;;;3.97;2.10;;;;;;;;;;5109012;28;20120;-82
2022/08/11 08:31:44;;;;;;;6.25;2.67;;;;;;;;;;5109109;28;20028;-82
2022/08/11 08:34:10;;;;;;;3.60;2.35;;;;;;;;;;5108387;28;20479;-83
2022/08/11 08:36:37;;;;;;;7.45;3.65;;;;;;;;;;5115115;28;20103;-83
2022/08/11 08:48:02;;;;;;;3.53;1.95;;;;;;;;;;5109112;27;20737;-83
2022/08/11 08:53:34;;;;;;;4.75;2.20;;;;;;;;;;5110129;27;20381;-80
2022/08/11 08:56:01;;;;;;;3.30;2.20;;;;;;;;;;5108143;28;20073;-84
2022/08/11 08:58:28;;;;;;;2.75;1.60;;;;;;;;;;5109046;28;20111;-84
2022/08/11 09:01:52;;;;;;;3.95;1.95;;;;;;;;;;5109827;27;20446;-82
2022/08/11 09:04:19;;;;;;;4.43;2.05;;;;;;;;;;5108331;28;20058;-82
2022/08/11 09:06:45;;;;;;;1.77;1.40;;;;;;;;;;5109022;28;20610;-82
2022/08/11 09:09:11;;;;;;;5.50;1.60;;;;;;;;;;5109645;28;20055;-72
2022/08/11 09:11:54;;;;;;;3.35;1.85;;;;;;;;;;5108803;27;20389;-69
2022/08/11 09:14:20;;;;;;;3.33;1.80;;;;;;;;;;5109626;28;20028;-71
2022/08/11 09:16:47;;;;;;;3.28;1.58;;;;;;;;;;5106182;28;20024;-72
2022/08/11 09:19:16;;;;;;;3.65;2.03;;;;;;;;;;5109566;28;20486;-72
2022/08/11 09:27:19;;;;;;;2.58;1.58;;;;;;;;;;5103870;28;20047;-70
2022/08/11 09:29:46;;;;;;;2.05;1.10;;;;;;;;;;5108731;28;20475;-70
2022/08/11 09:32:13;;;;;;;3.63;1.40;;;;;;;;;;5108869;28;20027;-70
2022/08/11 09:34:40;;;;;;;2.50;1.58;;;;;;;;;;5108855;28;20011;-70
2022/08/11 09:45:23;;;;;;;2.53;1.60;;;;;;;;;;5108665;28;20046;-71
2022/08/11 09:47:49;;;;;;;4.10;1.30;;;;;;;;;;5108326;28;20016;-71
2022/08/11 09:50:16;;;;;;;3.55;1.45;;;;;;;;;;5108709;28;20034;-71
2022/08/11 09:52:44;;;;;;;2.90;1.42;;;;;;;;;;5107956;28;20053;-70
2022/08/11 09:55:13;;;;;;;6.18;2.00;;;;;;;;;;5108785;28;20491;-74
2022/08/11 10:00:36;;;;;;;4.68;1.70;;;;;;;;;;5108589;28;20035;-73
2022/08/11 10:03:05;;;;;;;7.95;1.50;;;;;;;;;;5108730;28;20016;-74
2022/08/11 10:08:17;;;;;;;2.83;1.63;;;;;;;;;;5103326;28;20046;-72
2022/08/11 10:10:45;;;;;;;3.60;1.30;;;;;;;;;;5107852;28;20051;-74
2022/08/11 10:13:22;;;;;;;2.65;1.55;;;;;;;;;;5106679;28;20459;-73
2022/08/11 10:15:49;;;;;;;2.30;1.45;;;;;;;;;;5106352;28;20365;-74
2022/08/11 10:21:06;;;;;;;3.97;1.30;;;;;;;;;;5099149;28;20034;-73
2022/08/11 10:33:58;;;;;;;3.13;1.20;;;;;;;;;;5086653;28;20038;-74
2022/08/11 10:34:41;;;;;;;3.00;1.52;;;;;;;;;;5093774;28;20079;-73
2022/08/11 10:37:07;;;;;;;4.25;1.50;;;;;;;;;;5094382;28;20016;-73
2022/08/11 10:39:34;;;;;;;1.98;1.38;;;;;;;;;;5094239;28;20027;-73
2022/08/11 10:44:47;;;;;;;2.85;1.60;;;;;;;;;;5093913;28;20052;-73
2022/08/11 11:01:03;;;;;;;2.38;1.30;;;;;;;;;;5086328;28;20039;-74
2022/08/11 11:03:33;;;;;;;2.53;1.58;;;;;;;;;;5093886;28;20099;-75
2022/08/11 11:06:06;;;;;;;3.75;1.60;;;;;;;;;;5093654;28;20027;-74
2022/08/11 11:08:51;;;;;;;2.85;1.42;;;;;;;;;;5094173;28;20016;-74
2022/08/11 11:11:18;;;;;;;4.03;1.70;;;;;;;;;;5093232;28;20040;-74
2022/08/11 11:19:19;;;;;;;3.22;1.40;;;;;;;;;;5087992;28;20023;-74
2022/08/11 11:21:47;;;;;;;6.93;1.55;;;;;;;;;;5092988;28;20020;-72
2022/08/11 11:24:13;;;;;;;2.45;1.40;;;;;;;;;;5093228;28;20146;-73
2022/08/11 11:26:58;;;;;;;2.17;1.40;;;;;;;;;;5092824;28;20050;-74
2022/08/11 11:29:27;;;;;;;2.50;1.40;;;;;;;;;;5093504;28;20028;-73
2022/08/11 11:32:12;;;;;;;2.45;1.55;;;;;;;;;;5089138;28;20040;-73
2022/08/11 11:34:47;;;;;;;2.15;1.23;;;;;;;;;;5089193;28;20047;-75
2022/08/11 11:37:16;;;;;;;1.92;1.13;;;;;;;;;;5088969;28;20051;-76
2022/08/11 11:39:42;;;;;;;3.83;1.55;;;;;;;;;;5090331;28;20047;-75
2022/08/11 11:42:09;;;;;;;2.42;1.38;;;;;;;;;;5093112;28;20520;-74
2022/08/11 11:44:38;;;;;;;5.65;1.52;;;;;;;;;;5092160;28;20043;-75
2022/08/11 11:47:06;;;;;;;2.58;1.55;;;;;;;;;;5092084;28;20076;-74
2022/08/11 11:49:34;;;;;;;2.22;1.30;;;;;;;;;;5091828;28;20020;-74
2022/08/11 11:52:00;;;;;;;2.50;1.27;;;;;;;;;;5092389;28;20122;-73
2022/08/11 11:54:28;;;;;;;1.40;1.20;;;;;;;;;;5093008;28;20020;-73
2022/08/11 11:56:57;;;;;;;3.03;1.50;;;;;;;;;;5092364;28;20032;-74
2022/08/11 12:02:11;;;;;;;2.92;1.25;;;;;;;;;;5085856;28;20434;-74
2022/08/11 12:04:41;;;;;;;3.20;1.20;;;;;;;;;;5087379;28;20111;-74
2022/08/11 12:09:53;;;;;;;2.42;1.55;;;;;;;;;;5092171;28;20086;-75
2022/08/11 12:15:06;;;;;;;2.72;1.50;;;;;;;;;;5085153;28;20392;-74
2022/08/11 12:17:32;;;;;;;2.17;1.30;;;;;;;;;;5091350;28;20016;-75
2022/08/11 12:19:58;;;;;;;4.88;1.75;;;;;;;;;;5091666;28;20024;-74
2022/08/11 12:27:55;;;;;;;2.95;1.35;;;;;;;;;;5091408;28;20074;-74
2022/08/11 12:30:22;;;;;;;4.75;1.25;;;;;;;;;;5090215;28;20039;-75
2022/08/11 12:32:48;;;;;;;3.00;1.58;;;;;;;;;;5091790;28;20099;-75
2022/08/11 12:35:15;;;;;;;1.60;1.20;;;;;;;;;;5092010;28;20044;-76
2022/08/11 12:37:44;;;;;;;2.35;1.40;;;;;;;;;;5091621;28;20488;-75
2022/08/11 12:45:47;;;;;;;3.00;1.40;;;;;;;;;;5092214;28;20043;-77
2022/08/11 12:53:59;;;;;;;2.40;1.33;;;;;;;;;;5093960;28;20405;-77
2022/08/11 13:04:59;;;;;;;2.70;1.25;;;;;;;;;;5093841;28;20404;-77
2022/08/11 13:07:27;;;;;;;4.07;1.60;;;;;;;;;;5093766;28;20020;-77
2022/08/11 13:09:54;;;;;;;1.92;1.20;;;;;;;;;;5092939;28;20549;-77
2022/08/11 13:15:09;;;;;;;6.57;1.80;;;;;;;;;;5093571;28;20085;-77
2022/08/11 13:17:35;;;;;;;2.35;1.33;;;;;;;;;;5092988;28;20540;-77
2022/08/11 13:20:02;;;;;;;2.72;1.50;;;;;;;;;;5093476;28;20036;-77
2022/08/11 13:22:28;;;;;;;2.95;1.60;;;;;;;;;;5093627;28;20024;-77
2022/08/11 13:24:55;;;;;;;3.30;1.20;;;;;;;;;;5093564;28;20029;-77
2022/08/11 13:27:21;;;;;;;1.73;1.20;;;;;;;;;;5093415;28;20024;-77
2022/08/11 13:29:48;;;;;;;3.58;1.50;;;;;;;;;;5092745;28;20480;-77
2022/08/11 13:32:16;;;;;;;2.47;1.33;;;;;;;;;;5093510;28;20032;-77
2022/08/11 13:34:43;;;;;;;2.33;1.17;;;;;;;;;;5093766;28;20106;-79
2022/08/11 13:37:11;;;;;;;2.40;1.55;;;;;;;;;;5093073;28;20058;-78
2022/08/11 13:39:42;;;;;;;1.88;1.13;;;;;;;;;;5093306;28;20465;-76
2022/08/11 13:42:09;;;;;;;1.65;1.25;;;;;;;;;;5093729;28;20353;-76
2022/08/11 13:44:36;;;;;;;2.10;1.17;;;;;;;;;;5092922;28;20081;-77
2022/08/11 13:47:04;;;;;;;3.42;1.27;;;;;;;;;;5093253;28;20085;-77
2022/08/11 13:49:35;;;;;;;2.35;1.50;;;;;;;;;;5093176;28;20050;-77
2022/08/11 13:52:02;;;;;;;3.38;1.65;;;;;;;;;;5092887;28;20098;-78
2022/08/11 13:54:30;;;;;;;1.45;1.02;;;;;;;;;;5093097;28;20043;-77
2022/08/11 13:57:00;;;;;;;3.78;1.30;;;;;;;;;;5094982;28;20429;-78
2022/08/11 13:59:27;;;;;;;1.45;1.20;;;;;;;;;;5096616;28;20046;-77
2022/08/11 14:01:54;;;;;;;2.28;1.27;;;;;;;;;;5096889;28;20067;-78
2022/08/11 14:04:25;;;;;;;3.10;1.73;;;;;;;;;;5096890;28;20035;-78
2022/08/11 14:06:52;;;;;;;1.67;1.20;;;;;;;;;;5096492;28;20020;-78
2022/08/11 14:09:26;;;;;;;2.42;1.20;;;;;;;;;;5096741;28;20046;-77
2022/08/11 14:14:49;;;;;;;2.22;1.38;;;;;;;;;;5096622;28;20089;-77
2022/08/11 14:17:16;;;;;;;2.65;1.27;;;;;;;;;;5096518;28;20028;-74
2022/08/11 14:19:44;;;;;;;2.22;1.17;;;;;;;;;;5096294;28;20103;-77
2022/08/11 14:22:12;;;;;;;1.35;1.08;;;;;;;;;;5096746;28;20548;-77
2022/08/11 14:24:40;;;;;;;2.70;1.65;;;;;;;;;;5096415;28;20028;-77
2022/08/11 14:27:07;;;;;;;2.97;1.33;;;;;;;;;;5095992;28;20020;-76
2022/08/11 14:29:37;;;;;;;2.00;1.30;;;;;;;;;;5096319;28;20031;-76
2022/08/11 14:32:06;;;;;;;3.38;1.15;;;;;;;;;;5096746;28;20111;-76
2022/08/11 14:34:33;;;;;;;2.95;1.63;;;;;;;;;;5095933;28;20020;-75
2022/08/11 14:37:04;;;;;;;4.43;1.67;;;;;;;;;;5096236;28;20047;-76
2022/08/11 14:39:47;;;;;;;1.73;1.20;;;;;;;;;;5096280;28;20020;-76
2022/08/11 14:47:47;;;;;;;2.67;1.25;;;;;;;;;;5096091;28;20118;-77
2022/08/11 14:50:17;;;;;;;2.20;1.30;;;;;;;;;;5095898;28;20020;-77
2022/08/11 14:52:55;;;;;;;2.13;1.23;;;;;;;;;;5096213;28;20566;-77
2022/08/11 14:58:12;;;;;;;3.45;1.50;;;;;;;;;;5095888;28;20039;-76
2022/08/11 15:00:40;;;;;;;2.50;1.40;;;;;;;;;;5095799;28;20028;-76
2022/08/11 15:03:10;;;;;;;2.30;1.17;;;;;;;;;;5095235;28;20483;-76
2022/08/11 15:06:12;;;;;;;1.90;1.27;;;;;;;;;;5095836;28;20028;-76
2022/08/11 15:08:54;;;;;;;2.17;1.25;;;;;;;;;;5033090;28;20108;-76
2022/08/11 15:14:10;;;;;;;2.42;1.55;;;;;;;;;;5095606;28;20046;-76
2022/08/11 15:19:23;;;;;;;2.63;1.50;;;;;;;;;;5096098;28;20124;-76
2022/08/11 15:24:35;;;;;;;3.45;1.70;;;;;;;;;;5095402;28;20132;-76
2022/08/11 15:38:10;;;;;;;2.20;1.58;;;;;;;;;;5094608;28;20511;-75
2022/08/11 15:46:36;;;;;;;4.55;1.98;;;;;;;;;;5095169;28;20055;-75
2022/08/11 15:49:05;;;;;;;3.22;1.63;;;;;;;;;;5071431;28;20383;-75
2022/08/11 15:51:34;;;;;;;2.70;2.05;;;;;;;;;;5094218;28;20028;-75
2022/08/11 15:54:05;;;;;;;5.18;1.60;;;;;;;;;;5094798;28;20020;-76
2022/08/11 15:56:31;;;;;;;3.65;1.95;;;;;;;;;;5094832;28;20020;-76
2022/08/11 16:04:30;;;;;;;3.00;1.95;;;;;;;;;;5094472;28;20449;-76
2022/08/11 16:06:59;;;;;;;4.93;2.00;;;;;;;;;;5094522;28;20050;-77
2022/08/11 16:09:33;;;;;;;6.28;2.33;;;;;;;;;;5094492;28;20030;-77
2022/08/11 16:12:02;;;;;;;5.05;2.15;;;;;;;;;;5094860;28;20082;-75
2022/08/11 16:17:16;;;;;;;3.08;1.80;;;;;;;;;;5094501;28;20111;-77
2022/08/11 16:19:43;;;;;;;6.13;2.38;;;;;;;;;;5093463;28;20034;-77
2022/08/11 16:22:11;;;;;;;3.17;2.05;;;;;;;;;;5094154;28;20032;-75
2022/08/11 16:24:39;;;;;;;3.70;1.80;;;;;;;;;;5094273;28;20019;-78
2022/08/11 16:27:06;;;;;;;5.03;1.98;;;;;;;;;;5093703;28;20468;-76
2022/08/11 16:29:35;;;;;;;5.30;2.20;;;;;;;;;;5094052;28;20032;-76
2022/08/11 16:32:17;;;;;;;3.45;1.80;;;;;;;;;;5094311;28;20024;-76
2022/08/11 16:40:21;;;;;;;4.50;2.10;;;;;;;;;;5093749;28;20423;-77
2022/08/11 16:48:19;;;;;;;3.17;1.95;;;;;;;;;;5093842;28;20412;-77
2022/08/11 16:50:45;;;;;;;4.57;2.40;;;;;;;;;;5093622;28;20028;-78
2022/08/11 16:53:11;;;;;;;3.60;2.13;;;;;;;;;;5093761;28;20076;-76
2022/08/11 16:55:38;;;;;;;4.60;2.35;;;;;;;;;;5093271;28;20085;-77
2022/08/11 17:00:50;;;;;;;4.15;2.20;;;;;;;;;;5093384;28;20036;-77
2022/08/11 17:14:45;;;;;;;3.22;1.83;;;;;;;;;;5051481;28;20083;-76
2022/08/11 17:17:13;;;;;;;5.00;2.28;;;;;;;;;;5077494;28;20392;-76
2022/08/11 17:19:43;;;;;;;3.92;2.05;;;;;;;;;;5093556;28;20031;-76
2022/08/11 17:24:55;;;;;;;6.13;1.95;;;;;;;;;;5093254;28;20080;-76
2022/08/11 17:27:22;;;;;;;3.60;2.10;;;;;;;;;;5092105;28;20456;-75
2022/08/11 17:29:54;;;;;;;3.15;1.90;;;;;;;;;;5092858;28;20024;-76
2022/08/11 17:35:31;;;;;;;3.35;2.13;;;;;;;;;;5096640;28;20139;-76
2022/08/11 17:38:11;;;;;;;2.60;1.75;;;;;;;;;;5096976;28;20032;-76
2022/08/11 17:48:23;;;;;;;3.60;1.98;;;;;;;;;;5097388;28;20439;-76
2022/08/11 17:48:56;;;;;;;4.32;2.00;;;;;;;;;;5097169;28;20051;-77
2022/08/11 17:59:51;;;;;;;4.03;1.70;;;;;;;;;;5096947;28;20157;-75
2022/08/11 18:05:24;;;;;;;5.72;3.00;;;;;;;;;;5096615;28;20035;-76
